sensor_id;sensor_type;location;lat;lon;timestamp;P1;durP1;ratioP1;P2;durP2;ratioP2
17441;SDS011;8838;50.144;8.176;2023-07-02T00:01:24;8.48;;;2.20;;
17441;SDS011;8838;50.144;8.176;2023-07-02T00:03:51;4.20;;;2.20;;
17441;SDS011;8838;50.144;8.176;2023-07-02T00:06:18;6.97;;;2.30;;
17441;SDS011;8838;50.144;8.176;2023-07-02T00:08:45;9.52;;;2.10;;
17441;SDS011;8838;50.144;8.176;2023-07-02T00:11:13;6.53;;;2.17;;
17441;SDS011;8838;50.144;8.176;2023-07-02T00:13:43;4.47;;;2.35;;
17441;SDS011;8838;50.144;8.176;2023-07-02T00:16:10;5.28;;;2.08;;
17441;SDS011;8838;50.144;8.176;2023-07-02T00:18:36;6.68;;;2.35;;
17441;SDS011;8838;50.144;8.176;2023-07-02T00:21:05;5.40;;;2.50;;
17441;SDS011;8838;50.144;8.176;2023-07-02T00:23:31;9.90;;;2.35;;
17441;SDS011;8838;50.144;8.176;2023-07-02T00:25:58;9.55;;;2.55;;
17441;SDS011;8838;50.144;8.176;2023-07-02T00:28:25;5.53;;;2.38;;
17441;SDS011;8838;50.144;8.176;2023-07-02T00:30:53;5.57;;;2.15;;
17441;SDS011;8838;50.144;8.176;2023-07-02T00:33:20;7.90;;;2.35;;
17441;SDS011;8838;50.144;8.176;2023-07-02T00:35:47;4.15;;;2.25;;
17441;SDS011;8838;50.144;8.176;2023-07-02T00:38:14;7.63;;;2.35;;
17441;SDS011;8838;50.144;8.176;2023-07-02T00:40:40;4.55;;;2.28;;
17441;SDS011;8838;50.144;8.176;2023-07-02T00:43:07;6.40;;;2.58;;
17441;SDS011;8838;50.144;8.176;2023-07-02T00:45:37;7.13;;;2.20;;
17441;SDS011;8838;50.144;8.176;2023-07-02T00:48:06;7.50;;;2.10;;
17441;SDS011;8838;50.144;8.176;2023-07-02T00:50:33;4.30;;;2.53;;
17441;SDS011;8838;50.144;8.176;2023-07-02T00:53:00;9.05;;;2.60;;
17441;SDS011;8838;50.144;8.176;2023-07-02T00:55:26;6.78;;;2.33;;
17441;SDS011;8838;50.144;8.176;2023-07-02T00:57:53;6.10;;;2.55;;
17441;SDS011;8838;50.144;8.176;2023-07-02T01:00:21;2.97;;;1.92;;
17441;SDS011;8838;50.144;8.176;2023-07-02T01:02:52;9.02;;;2.50;;
17441;SDS011;8838;50.144;8.176;2023-07-02T01:05:25;5.20;;;2.10;;
17441;SDS011;8838;50.144;8.176;2023-07-02T01:08:00;6.57;;;2.60;;
17441;SDS011;8838;50.144;8.176;2023-07-02T01:10:27;6.18;;;2.20;;
17441;SDS011;8838;50.144;8.176;2023-07-02T01:12:56;8.90;;;2.80;;
17441;SDS011;8838;50.144;8.176;2023-07-02T01:15:25;5.75;;;2.47;;
17441;SDS011;8838;50.144;8.176;2023-07-02T01:17:53;11.02;;;2.60;;
17441;SDS011;8838;50.144;8.176;2023-07-02T01:20:21;7.32;;;2.60;;
17441;SDS011;8838;50.144;8.176;2023-07-02T01:22:49;6.80;;;2.38;;
17441;SDS011;8838;50.144;8.176;2023-07-02T01:25:17;7.88;;;2.80;;
17441;SDS011;8838;50.144;8.176;2023-07-02T01:27:49;7.00;;;2.47;;
17441;SDS011;8838;50.144;8.176;2023-07-02T01:30:18;3.67;;;2.20;;
17441;SDS011;8838;50.144;8.176;2023-07-02T01:32:45;3.70;;;2.45;;
17441;SDS011;8838;50.144;8.176;2023-07-02T01:35:12;7.70;;;2.45;;
17441;SDS011;8838;50.144;8.176;2023-07-02T01:37:40;5.63;;;2.55;;
17441;SDS011;8838;50.144;8.176;2023-07-02T01:40:07;7.85;;;2.65;;
17441;SDS011;8838;50.144;8.176;2023-07-02T01:42:35;6.22;;;2.60;;
17441;SDS011;8838;50.144;8.176;2023-07-02T01:45:02;7.80;;;2.60;;
17441;SDS011;8838;50.144;8.176;2023-07-02T01:47:29;5.65;;;2.30;;
17441;SDS011;8838;50.144;8.176;2023-07-02T01:49:55;6.78;;;2.90;;
17441;SDS011;8838;50.144;8.176;2023-07-02T01:52:22;5.82;;;2.60;;
17441;SDS011;8838;50.144;8.176;2023-07-02T01:54:50;6.45;;;2.78;;
17441;SDS011;8838;50.144;8.176;2023-07-02T01:57:17;6.95;;;2.63;;
17441;SDS011;8838;50.144;8.176;2023-07-02T01:59:44;6.72;;;2.75;;
17441;SDS011;8838;50.144;8.176;2023-07-02T02:02:11;6.07;;;2.65;;
17441;SDS011;8838;50.144;8.176;2023-07-02T02:04:38;5.03;;;2.85;;
17441;SDS011;8838;50.144;8.176;2023-07-02T02:07:05;8.75;;;2.85;;
17441;SDS011;8838;50.144;8.176;2023-07-02T02:09:32;6.60;;;3.22;;
17441;SDS011;8838;50.144;8.176;2023-07-02T02:12:00;6.78;;;3.05;;
17441;SDS011;8838;50.144;8.176;2023-07-02T02:14:26;9.75;;;3.25;;
17441;SDS011;8838;50.144;8.176;2023-07-02T02:16:53;6.57;;;3.28;;
17441;SDS011;8838;50.144;8.176;2023-07-02T02:19:20;8.80;;;3.35;;
17441;SDS011;8838;50.144;8.176;2023-07-02T02:21:47;8.65;;;3.50;;
17441;SDS011;8838;50.144;8.176;2023-07-02T02:24:14;8.50;;;3.28;;
17441;SDS011;8838;50.144;8.176;2023-07-02T02:26:41;7.03;;;3.00;;
17441;SDS011;8838;50.144;8.176;2023-07-02T02:29:12;7.45;;;3.70;;
17441;SDS011;8838;50.144;8.176;2023-07-02T02:31:39;9.90;;;4.00;;
17441;SDS011;8838;50.144;8.176;2023-07-02T02:34:06;9.13;;;4.03;;
17441;SDS011;8838;50.144;8.176;2023-07-02T02:36:33;11.85;;;4.13;;
17441;SDS011;8838;50.144;8.176;2023-07-02T02:38:59;13.05;;;4.18;;
17441;SDS011;8838;50.144;8.176;2023-07-02T02:41:26;8.35;;;4.18;;
17441;SDS011;8838;50.144;8.176;2023-07-02T02:43:53;7.38;;;4.22;;
17441;SDS011;8838;50.144;8.176;2023-07-02T02:46:21;11.15;;;4.50;;
17441;SDS011;8838;50.144;8.176;2023-07-02T02:48:49;11.02;;;4.93;;
17441;SDS011;8838;50.144;8.176;2023-07-02T02:51:16;12.35;;;4.93;;
17441;SDS011;8838;50.144;8.176;2023-07-02T02:53:45;10.07;;;4.65;;
17441;SDS011;8838;50.144;8.176;2023-07-02T02:56:12;11.45;;;4.95;;
17441;SDS011;8838;50.144;8.176;2023-07-02T02:58:39;9.35;;;5.00;;
17441;SDS011;8838;50.144;8.176;2023-07-02T03:01:06;13.43;;;5.50;;
17441;SDS011;8838;50.144;8.176;2023-07-02T03:03:36;16.58;;;5.22;;
17441;SDS011;8838;50.144;8.176;2023-07-02T03:06:05;12.85;;;5.10;;
17441;SDS011;8838;50.144;8.176;2023-07-02T03:08:32;11.55;;;5.53;;
17441;SDS011;8838;50.144;8.176;2023-07-02T03:10:59;12.80;;;5.80;;
17441;SDS011;8838;50.144;8.176;2023-07-02T03:13:26;13.15;;;5.88;;
17441;SDS011;8838;50.144;8.176;2023-07-02T03:15:52;12.18;;;6.22;;
17441;SDS011;8838;50.144;8.176;2023-07-02T03:18:20;15.65;;;6.63;;
17441;SDS011;8838;50.144;8.176;2023-07-02T03:20:48;13.98;;;6.50;;
17441;SDS011;8838;50.144;8.176;2023-07-02T03:23:15;15.23;;;6.47;;
17441;SDS011;8838;50.144;8.176;2023-07-02T03:25:41;17.58;;;7.15;;
17441;SDS011;8838;50.144;8.176;2023-07-02T03:28:08;12.75;;;7.10;;
17441;SDS011;8838;50.144;8.176;2023-07-02T03:30:35;19.88;;;7.45;;
17441;SDS011;8838;50.144;8.176;2023-07-02T03:33:02;16.63;;;7.70;;
17441;SDS011;8838;50.144;8.176;2023-07-02T03:35:29;15.55;;;8.00;;
17441;SDS011;8838;50.144;8.176;2023-07-02T03:37:58;14.88;;;7.60;;
17441;SDS011;8838;50.144;8.176;2023-07-02T03:40:25;16.63;;;8.25;;
17441;SDS011;8838;50.144;8.176;2023-07-02T03:42:52;19.35;;;9.45;;
17441;SDS011;8838;50.144;8.176;2023-07-02T03:45:19;22.42;;;8.23;;
17441;SDS011;8838;50.144;8.176;2023-07-02T03:47:45;18.08;;;8.38;;
17441;SDS011;8838;50.144;8.176;2023-07-02T03:50:12;19.45;;;8.57;;
17441;SDS011;8838;50.144;8.176;2023-07-02T03:52:39;18.00;;;8.70;;
17441;SDS011;8838;50.144;8.176;2023-07-02T03:55:08;16.40;;;8.88;;
17441;SDS011;8838;50.144;8.176;2023-07-02T03:57:35;18.70;;;8.00;;
17441;SDS011;8838;50.144;8.176;2023-07-02T04:00:05;22.83;;;9.02;;
17441;SDS011;8838;50.144;8.176;2023-07-02T04:02:34;14.60;;;8.20;;
17441;SDS011;8838;50.144;8.176;2023-07-02T04:05:01;18.23;;;8.57;;
17441;SDS011;8838;50.144;8.176;2023-07-02T04:07:28;18.38;;;8.40;;
17441;SDS011;8838;50.144;8.176;2023-07-02T04:09:55;20.08;;;8.52;;
17441;SDS011;8838;50.144;8.176;2023-07-02T04:12:23;17.63;;;8.02;;
17441;SDS011;8838;50.144;8.176;2023-07-02T04:14:50;18.00;;;8.48;;
17441;SDS011;8838;50.144;8.176;2023-07-02T04:17:17;19.40;;;8.18;;
17441;SDS011;8838;50.144;8.176;2023-07-02T04:19:44;17.60;;;8.93;;
17441;SDS011;8838;50.144;8.176;2023-07-02T04:22:11;16.70;;;7.97;;
17441;SDS011;8838;50.144;8.176;2023-07-02T04:24:37;18.15;;;8.45;;
17441;SDS011;8838;50.144;8.176;2023-07-02T04:27:04;20.77;;;8.45;;
17441;SDS011;8838;50.144;8.176;2023-07-02T04:29:33;17.10;;;9.00;;
17441;SDS011;8838;50.144;8.176;2023-07-02T04:32:00;20.35;;;8.35;;
17441;SDS011;8838;50.144;8.176;2023-07-02T04:34:27;17.00;;;9.27;;
17441;SDS011;8838;50.144;8.176;2023-07-02T04:36:54;18.25;;;8.10;;
17441;SDS011;8838;50.144;8.176;2023-07-02T04:39:24;22.05;;;8.77;;
17441;SDS011;8838;50.144;8.176;2023-07-02T04:41:50;17.40;;;8.77;;
17441;SDS011;8838;50.144;8.176;2023-07-02T04:44:17;21.58;;;8.95;;
17441;SDS011;8838;50.144;8.176;2023-07-02T04:46:48;22.90;;;9.80;;
17441;SDS011;8838;50.144;8.176;2023-07-02T04:49:17;18.92;;;8.55;;
17441;SDS011;8838;50.144;8.176;2023-07-02T04:51:43;19.42;;;9.25;;
17441;SDS011;8838;50.144;8.176;2023-07-02T04:54:10;18.77;;;9.25;;
17441;SDS011;8838;50.144;8.176;2023-07-02T04:56:37;17.75;;;9.55;;
17441;SDS011;8838;50.144;8.176;2023-07-02T04:59:04;21.85;;;9.93;;
17441;SDS011;8838;50.144;8.176;2023-07-02T05:01:30;20.30;;;9.60;;
17441;SDS011;8838;50.144;8.176;2023-07-02T05:03:59;19.67;;;8.95;;
17441;SDS011;8838;50.144;8.176;2023-07-02T05:06:25;21.77;;;9.48;;
17441;SDS011;8838;50.144;8.176;2023-07-02T05:08:52;18.33;;;9.30;;
17441;SDS011;8838;50.144;8.176;2023-07-02T05:11:19;21.95;;;9.23;;
17441;SDS011;8838;50.144;8.176;2023-07-02T05:13:46;20.90;;;9.45;;
17441;SDS011;8838;50.144;8.176;2023-07-02T05:16:13;19.73;;;10.38;;
17441;SDS011;8838;50.144;8.176;2023-07-02T05:18:40;19.60;;;9.80;;
17441;SDS011;8838;50.144;8.176;2023-07-02T05:21:08;21.77;;;9.23;;
17441;SDS011;8838;50.144;8.176;2023-07-02T05:23:35;19.33;;;10.25;;
17441;SDS011;8838;50.144;8.176;2023-07-02T05:26:02;18.38;;;10.10;;
17441;SDS011;8838;50.144;8.176;2023-07-02T05:28:28;16.70;;;9.63;;
17441;SDS011;8838;50.144;8.176;2023-07-02T05:30:55;19.65;;;9.85;;
17441;SDS011;8838;50.144;8.176;2023-07-02T05:33:22;19.42;;;10.07;;
17441;SDS011;8838;50.144;8.176;2023-07-02T05:35:49;21.60;;;9.90;;
17441;SDS011;8838;50.144;8.176;2023-07-02T05:38:17;19.67;;;9.80;;
17441;SDS011;8838;50.144;8.176;2023-07-02T05:40:44;18.63;;;9.63;;
17441;SDS011;8838;50.144;8.176;2023-07-02T05:43:11;22.50;;;9.95;;
17441;SDS011;8838;50.144;8.176;2023-07-02T05:45:38;21.13;;;10.68;;
17441;SDS011;8838;50.144;8.176;2023-07-02T05:48:05;21.02;;;11.00;;
17441;SDS011;8838;50.144;8.176;2023-07-02T05:50:32;19.50;;;10.68;;
17441;SDS011;8838;50.144;8.176;2023-07-02T05:52:58;20.60;;;10.68;;
17441;SDS011;8838;50.144;8.176;2023-07-02T05:55:29;22.35;;;10.10;;
17441;SDS011;8838;50.144;8.176;2023-07-02T05:57:56;21.60;;;10.88;;
17441;SDS011;8838;50.144;8.176;2023-07-02T06:00:26;21.83;;;11.05;;
17441;SDS011;8838;50.144;8.176;2023-07-02T06:02:53;23.85;;;10.95;;
17441;SDS011;8838;50.144;8.176;2023-07-02T06:05:20;23.58;;;11.07;;
17441;SDS011;8838;50.144;8.176;2023-07-02T06:07:46;23.63;;;11.18;;
17441;SDS011;8838;50.144;8.176;2023-07-02T06:10:13;22.60;;;11.13;;
17441;SDS011;8838;50.144;8.176;2023-07-02T06:12:41;21.20;;;10.50;;
17441;SDS011;8838;50.144;8.176;2023-07-02T06:15:09;23.80;;;10.77;;
17441;SDS011;8838;50.144;8.176;2023-07-02T06:17:36;21.77;;;11.20;;
17441;SDS011;8838;50.144;8.176;2023-07-02T06:20:04;21.38;;;10.93;;
17441;SDS011;8838;50.144;8.176;2023-07-02T06:22:31;22.80;;;11.57;;
17441;SDS011;8838;50.144;8.176;2023-07-02T06:24:58;22.92;;;11.55;;
17441;SDS011;8838;50.144;8.176;2023-07-02T06:27:26;29.83;;;11.85;;
17441;SDS011;8838;50.144;8.176;2023-07-02T06:29:54;23.38;;;11.10;;
17441;SDS011;8838;50.144;8.176;2023-07-02T06:32:20;19.75;;;10.95;;
17441;SDS011;8838;50.144;8.176;2023-07-02T06:34:47;22.45;;;11.40;;
17441;SDS011;8838;50.144;8.176;2023-07-02T06:37:14;21.70;;;11.07;;
17441;SDS011;8838;50.144;8.176;2023-07-02T06:39:41;24.08;;;11.82;;
17441;SDS011;8838;50.144;8.176;2023-07-02T06:42:08;21.65;;;11.13;;
17441;SDS011;8838;50.144;8.176;2023-07-02T06:44:35;21.25;;;10.85;;
17441;SDS011;8838;50.144;8.176;2023-07-02T06:47:03;25.80;;;11.43;;
17441;SDS011;8838;50.144;8.176;2023-07-02T06:49:30;22.52;;;11.25;;
17441;SDS011;8838;50.144;8.176;2023-07-02T06:51:56;21.55;;;11.05;;
17441;SDS011;8838;50.144;8.176;2023-07-02T06:54:25;22.40;;;12.05;;
17441;SDS011;8838;50.144;8.176;2023-07-02T06:56:52;27.67;;;11.65;;
17441;SDS011;8838;50.144;8.176;2023-07-02T06:59:19;22.98;;;11.15;;
17441;SDS011;8838;50.144;8.176;2023-07-02T07:01:46;24.02;;;11.35;;
17441;SDS011;8838;50.144;8.176;2023-07-02T07:04:17;26.98;;;12.00;;
17441;SDS011;8838;50.144;8.176;2023-07-02T07:06:44;22.60;;;11.68;;
17441;SDS011;8838;50.144;8.176;2023-07-02T07:09:11;25.23;;;12.13;;
17441;SDS011;8838;50.144;8.176;2023-07-02T07:11:38;24.38;;;11.57;;
17441;SDS011;8838;50.144;8.176;2023-07-02T07:14:05;21.83;;;11.95;;
17441;SDS011;8838;50.144;8.176;2023-07-02T07:16:32;26.20;;;12.05;;
17441;SDS011;8838;50.144;8.176;2023-07-02T07:18:58;22.25;;;11.50;;
17441;SDS011;8838;50.144;8.176;2023-07-02T07:21:28;21.95;;;11.07;;
17441;SDS011;8838;50.144;8.176;2023-07-02T07:23:54;26.92;;;11.68;;
17441;SDS011;8838;50.144;8.176;2023-07-02T07:26:21;20.30;;;10.73;;
17441;SDS011;8838;50.144;8.176;2023-07-02T07:28:48;23.55;;;11.38;;
17441;SDS011;8838;50.144;8.176;2023-07-02T07:31:15;25.27;;;11.73;;
17441;SDS011;8838;50.144;8.176;2023-07-02T07:33:42;23.40;;;12.07;;
17441;SDS011;8838;50.144;8.176;2023-07-02T07:36:09;22.35;;;11.77;;
17441;SDS011;8838;50.144;8.176;2023-07-02T07:38:38;18.80;;;10.75;;
17441;SDS011;8838;50.144;8.176;2023-07-02T07:41:05;22.17;;;11.35;;
17441;SDS011;8838;50.144;8.176;2023-07-02T07:43:31;20.92;;;11.52;;
17441;SDS011;8838;50.144;8.176;2023-07-02T07:45:59;19.77;;;11.13;;
17441;SDS011;8838;50.144;8.176;2023-07-02T07:48:26;22.27;;;11.45;;
17441;SDS011;8838;50.144;8.176;2023-07-02T07:50:55;20.33;;;11.27;;
17441;SDS011;8838;50.144;8.176;2023-07-02T07:53:22;22.60;;;10.82;;
17441;SDS011;8838;50.144;8.176;2023-07-02T07:55:50;20.67;;;10.57;;
17441;SDS011;8838;50.144;8.176;2023-07-02T07:58:17;19.17;;;10.70;;
17441;SDS011;8838;50.144;8.176;2023-07-02T08:00:44;19.48;;;10.75;;
17441;SDS011;8838;50.144;8.176;2023-07-02T08:03:10;17.02;;;9.68;;
17441;SDS011;8838;50.144;8.176;2023-07-02T08:05:37;23.67;;;10.77;;
17441;SDS011;8838;50.144;8.176;2023-07-02T08:08:04;18.08;;;10.45;;
17441;SDS011;8838;50.144;8.176;2023-07-02T08:10:31;19.92;;;10.48;;
17441;SDS011;8838;50.144;8.176;2023-07-02T08:12:59;19.60;;;9.70;;
17441;SDS011;8838;50.144;8.176;2023-07-02T08:15:26;19.23;;;10.90;;
17441;SDS011;8838;50.144;8.176;2023-07-02T08:17:53;21.48;;;10.02;;
17441;SDS011;8838;50.144;8.176;2023-07-02T08:20:22;18.35;;;9.75;;
17441;SDS011;8838;50.144;8.176;2023-07-02T08:22:49;19.08;;;9.90;;
17441;SDS011;8838;50.144;8.176;2023-07-02T08:25:16;16.83;;;9.60;;
17441;SDS011;8838;50.144;8.176;2023-07-02T08:27:44;17.67;;;9.60;;
17441;SDS011;8838;50.144;8.176;2023-07-02T08:30:12;16.45;;;9.07;;
17441;SDS011;8838;50.144;8.176;2023-07-02T08:32:39;16.67;;;9.43;;
17441;SDS011;8838;50.144;8.176;2023-07-02T08:35:06;17.02;;;8.70;;
17441;SDS011;8838;50.144;8.176;2023-07-02T08:37:34;16.55;;;8.98;;
17441;SDS011;8838;50.144;8.176;2023-07-02T08:40:02;20.55;;;10.05;;
17441;SDS011;8838;50.144;8.176;2023-07-02T08:42:30;15.60;;;9.40;;
17441;SDS011;8838;50.144;8.176;2023-07-02T08:44:59;18.67;;;9.25;;
17441;SDS011;8838;50.144;8.176;2023-07-02T08:47:27;15.32;;;9.18;;
17441;SDS011;8838;50.144;8.176;2023-07-02T08:49:54;19.77;;;9.35;;
17441;SDS011;8838;50.144;8.176;2023-07-02T08:52:21;20.02;;;10.25;;
17441;SDS011;8838;50.144;8.176;2023-07-02T08:54:48;17.27;;;9.68;;
17441;SDS011;8838;50.144;8.176;2023-07-02T08:57:15;21.40;;;10.38;;
17441;SDS011;8838;50.144;8.176;2023-07-02T08:59:46;18.58;;;10.50;;
17441;SDS011;8838;50.144;8.176;2023-07-02T09:02:14;21.40;;;10.75;;
17441;SDS011;8838;50.144;8.176;2023-07-02T09:04:45;18.35;;;10.45;;
17441;SDS011;8838;50.144;8.176;2023-07-02T09:07:12;21.13;;;10.90;;
17441;SDS011;8838;50.144;8.176;2023-07-02T09:09:48;23.98;;;10.70;;
17441;SDS011;8838;50.144;8.176;2023-07-02T09:12:22;20.38;;;11.07;;
17441;SDS011;8838;50.144;8.176;2023-07-02T09:14:56;24.38;;;11.00;;
17441;SDS011;8838;50.144;8.176;2023-07-02T09:17:27;21.10;;;11.23;;
17441;SDS011;8838;50.144;8.176;2023-07-02T09:19:57;20.33;;;10.77;;
17441;SDS011;8838;50.144;8.176;2023-07-02T09:22:25;18.52;;;10.40;;
17441;SDS011;8838;50.144;8.176;2023-07-02T09:24:53;20.95;;;11.02;;
17441;SDS011;8838;50.144;8.176;2023-07-02T09:27:32;19.63;;;10.93;;
17441;SDS011;8838;50.144;8.176;2023-07-02T09:30:05;24.30;;;10.80;;
17441;SDS011;8838;50.144;8.176;2023-07-02T09:32:34;20.13;;;11.30;;
17441;SDS011;8838;50.144;8.176;2023-07-02T09:35:02;20.50;;;11.23;;
17441;SDS011;8838;50.144;8.176;2023-07-02T09:37:29;21.27;;;11.20;;
17441;SDS011;8838;50.144;8.176;2023-07-02T09:39:57;20.65;;;11.55;;
17441;SDS011;8838;50.144;8.176;2023-07-02T09:42:24;20.88;;;11.32;;
17441;SDS011;8838;50.144;8.176;2023-07-02T09:44:52;19.70;;;10.70;;
17441;SDS011;8838;50.144;8.176;2023-07-02T09:47:21;17.30;;;9.82;;
17441;SDS011;8838;50.144;8.176;2023-07-02T09:49:49;24.17;;;11.10;;
17441;SDS011;8838;50.144;8.176;2023-07-02T09:52:21;19.13;;;9.90;;
17441;SDS011;8838;50.144;8.176;2023-07-02T09:54:49;24.27;;;10.90;;
17441;SDS011;8838;50.144;8.176;2023-07-02T09:57:16;19.27;;;9.82;;
17441;SDS011;8838;50.144;8.176;2023-07-02T09:59:43;18.98;;;10.70;;
17441;SDS011;8838;50.144;8.176;2023-07-02T10:02:10;21.65;;;10.90;;
17441;SDS011;8838;50.144;8.176;2023-07-02T10:04:40;21.27;;;11.15;;
17441;SDS011;8838;50.144;8.176;2023-07-02T10:07:09;18.42;;;9.73;;
17441;SDS011;8838;50.144;8.176;2023-07-02T10:09:42;17.02;;;10.30;;
17441;SDS011;8838;50.144;8.176;2023-07-02T10:12:16;22.98;;;10.35;;
17441;SDS011;8838;50.144;8.176;2023-07-02T10:14:45;19.85;;;10.90;;
17441;SDS011;8838;50.144;8.176;2023-07-02T10:17:22;19.92;;;10.40;;
17441;SDS011;8838;50.144;8.176;2023-07-02T10:19:50;15.75;;;10.15;;
17441;SDS011;8838;50.144;8.176;2023-07-02T10:22:18;19.38;;;10.23;;
17441;SDS011;8838;50.144;8.176;2023-07-02T10:24:51;21.83;;;10.23;;
17441;SDS011;8838;50.144;8.176;2023-07-02T10:27:20;20.23;;;10.82;;
17441;SDS011;8838;50.144;8.176;2023-07-02T10:29:50;18.95;;;10.45;;
17441;SDS011;8838;50.144;8.176;2023-07-02T10:32:25;19.83;;;10.10;;
17441;SDS011;8838;50.144;8.176;2023-07-02T10:34:53;16.20;;;9.57;;
17441;SDS011;8838;50.144;8.176;2023-07-02T10:37:21;16.33;;;10.25;;
17441;SDS011;8838;50.144;8.176;2023-07-02T10:39:47;15.85;;;9.55;;
17441;SDS011;8838;50.144;8.176;2023-07-02T10:42:16;18.92;;;9.80;;
17441;SDS011;8838;50.144;8.176;2023-07-02T10:44:46;17.73;;;9.23;;
17441;SDS011;8838;50.144;8.176;2023-07-02T10:47:14;14.88;;;8.68;;
17441;SDS011;8838;50.144;8.176;2023-07-02T10:49:41;18.77;;;9.27;;
17441;SDS011;8838;50.144;8.176;2023-07-02T10:52:07;18.20;;;8.60;;
17441;SDS011;8838;50.144;8.176;2023-07-02T10:54:40;15.93;;;8.68;;
17441;SDS011;8838;50.144;8.176;2023-07-02T10:57:08;16.38;;;9.45;;
17441;SDS011;8838;50.144;8.176;2023-07-02T10:59:37;13.38;;;8.93;;
17441;SDS011;8838;50.144;8.176;2023-07-02T11:02:04;16.08;;;9.88;;
17441;SDS011;8838;50.144;8.176;2023-07-02T11:04:31;16.95;;;9.57;;
17441;SDS011;8838;50.144;8.176;2023-07-02T11:06:59;18.30;;;8.68;;
17441;SDS011;8838;50.144;8.176;2023-07-02T11:09:26;15.10;;;7.80;;
17441;SDS011;8838;50.144;8.176;2023-07-02T11:11:53;15.73;;;9.05;;
17441;SDS011;8838;50.144;8.176;2023-07-02T11:14:27;16.73;;;8.65;;
17441;SDS011;8838;50.144;8.176;2023-07-02T11:16:57;17.35;;;8.63;;
17441;SDS011;8838;50.144;8.176;2023-07-02T11:19:30;15.70;;;8.98;;
17441;SDS011;8838;50.144;8.176;2023-07-02T11:21:57;16.02;;;8.80;;
17441;SDS011;8838;50.144;8.176;2023-07-02T11:24:28;17.67;;;9.30;;
17441;SDS011;8838;50.144;8.176;2023-07-02T11:26:57;16.85;;;9.10;;
17441;SDS011;8838;50.144;8.176;2023-07-02T11:29:24;17.58;;;9.30;;
17441;SDS011;8838;50.144;8.176;2023-07-02T11:31:51;16.90;;;9.57;;
17441;SDS011;8838;50.144;8.176;2023-07-02T11:34:20;15.57;;;9.43;;
17441;SDS011;8838;50.144;8.176;2023-07-02T11:36:48;16.13;;;9.23;;
17441;SDS011;8838;50.144;8.176;2023-07-02T11:39:18;17.35;;;9.68;;
17441;SDS011;8838;50.144;8.176;2023-07-02T11:41:47;18.90;;;9.73;;
17441;SDS011;8838;50.144;8.176;2023-07-02T11:44:15;17.98;;;9.38;;
17441;SDS011;8838;50.144;8.176;2023-07-02T11:46:42;14.68;;;9.07;;
17441;SDS011;8838;50.144;8.176;2023-07-02T11:49:10;16.42;;;9.48;;
17441;SDS011;8838;50.144;8.176;2023-07-02T11:51:38;18.60;;;9.50;;
17441;SDS011;8838;50.144;8.176;2023-07-02T11:54:06;17.45;;;9.52;;
17441;SDS011;8838;50.144;8.176;2023-07-02T11:56:33;16.33;;;9.20;;
17441;SDS011;8838;50.144;8.176;2023-07-02T11:59:00;16.65;;;9.52;;
17441;SDS011;8838;50.144;8.176;2023-07-02T12:01:27;17.60;;;9.60;;
17441;SDS011;8838;50.144;8.176;2023-07-02T12:03:54;20.38;;;10.20;;
17441;SDS011;8838;50.144;8.176;2023-07-02T12:06:20;18.23;;;9.90;;
17441;SDS011;8838;50.144;8.176;2023-07-02T12:08:49;20.85;;;10.50;;
17441;SDS011;8838;50.144;8.176;2023-07-02T12:11:16;18.75;;;11.02;;
17441;SDS011;8838;50.144;8.176;2023-07-02T12:13:42;18.48;;;9.85;;
17441;SDS011;8838;50.144;8.176;2023-07-02T12:16:09;18.92;;;10.82;;
17441;SDS011;8838;50.144;8.176;2023-07-02T12:18:39;20.00;;;10.70;;
17441;SDS011;8838;50.144;8.176;2023-07-02T12:21:05;17.38;;;9.63;;
17441;SDS011;8838;50.144;8.176;2023-07-02T12:23:32;17.10;;;9.57;;
17441;SDS011;8838;50.144;8.176;2023-07-02T12:26:00;16.88;;;10.18;;
17441;SDS011;8838;50.144;8.176;2023-07-02T12:28:27;20.27;;;10.10;;
17441;SDS011;8838;50.144;8.176;2023-07-02T12:30:54;19.25;;;10.30;;
17441;SDS011;8838;50.144;8.176;2023-07-02T12:33:21;20.80;;;10.77;;
17441;SDS011;8838;50.144;8.176;2023-07-02T12:35:47;21.25;;;10.43;;
17441;SDS011;8838;50.144;8.176;2023-07-02T12:38:14;21.33;;;11.35;;
17441;SDS011;8838;50.144;8.176;2023-07-02T12:40:44;17.98;;;10.85;;
17441;SDS011;8838;50.144;8.176;2023-07-02T12:43:12;17.58;;;10.68;;
17441;SDS011;8838;50.144;8.176;2023-07-02T12:45:39;23.55;;;11.50;;
17441;SDS011;8838;50.144;8.176;2023-07-02T12:48:05;19.70;;;10.77;;
17441;SDS011;8838;50.144;8.176;2023-07-02T12:50:32;20.52;;;11.07;;
17441;SDS011;8838;50.144;8.176;2023-07-02T12:52:59;21.90;;;11.48;;
17441;SDS011;8838;50.144;8.176;2023-07-02T12:55:26;22.10;;;11.35;;
17441;SDS011;8838;50.144;8.176;2023-07-02T12:57:54;19.27;;;11.70;;
17441;SDS011;8838;50.144;8.176;2023-07-02T13:00:23;22.23;;;12.15;;
17441;SDS011;8838;50.144;8.176;2023-07-02T13:02:53;22.38;;;12.40;;
17441;SDS011;8838;50.144;8.176;2023-07-02T13:05:20;21.27;;;11.68;;
17441;SDS011;8838;50.144;8.176;2023-07-02T13:07:46;23.20;;;12.00;;
17441;SDS011;8838;50.144;8.176;2023-07-02T13:10:15;23.17;;;12.45;;
17441;SDS011;8838;50.144;8.176;2023-07-02T13:12:42;22.20;;;11.82;;
17441;SDS011;8838;50.144;8.176;2023-07-02T13:15:09;20.08;;;11.65;;
17441;SDS011;8838;50.144;8.176;2023-07-02T13:17:38;24.05;;;11.75;;
17441;SDS011;8838;50.144;8.176;2023-07-02T13:20:06;26.42;;;12.35;;
17441;SDS011;8838;50.144;8.176;2023-07-02T13:22:34;20.27;;;11.68;;
17441;SDS011;8838;50.144;8.176;2023-07-02T13:25:02;21.17;;;12.23;;
17441;SDS011;8838;50.144;8.176;2023-07-02T13:27:30;21.30;;;11.70;;
17441;SDS011;8838;50.144;8.176;2023-07-02T13:29:56;20.98;;;11.90;;
17441;SDS011;8838;50.144;8.176;2023-07-02T13:32:23;21.10;;;12.35;;
17441;SDS011;8838;50.144;8.176;2023-07-02T13:34:52;20.77;;;11.52;;
17441;SDS011;8838;50.144;8.176;2023-07-02T13:37:19;22.17;;;11.77;;
17441;SDS011;8838;50.144;8.176;2023-07-02T13:39:46;21.45;;;11.82;;
17441;SDS011;8838;50.144;8.176;2023-07-02T13:42:13;22.02;;;12.20;;
17441;SDS011;8838;50.144;8.176;2023-07-02T13:44:41;21.50;;;10.90;;
17441;SDS011;8838;50.144;8.176;2023-07-02T13:47:08;24.38;;;12.15;;
17441;SDS011;8838;50.144;8.176;2023-07-02T13:49:36;21.40;;;12.15;;
17441;SDS011;8838;50.144;8.176;2023-07-02T13:52:05;21.17;;;11.77;;
17441;SDS011;8838;50.144;8.176;2023-07-02T13:54:32;22.38;;;12.13;;
17441;SDS011;8838;50.144;8.176;2023-07-02T13:56:59;21.35;;;12.55;;
17441;SDS011;8838;50.144;8.176;2023-07-02T13:59:27;21.92;;;12.00;;
17441;SDS011;8838;50.144;8.176;2023-07-02T14:01:53;25.67;;;13.00;;
17441;SDS011;8838;50.144;8.176;2023-07-02T14:04:20;21.75;;;12.25;;
17441;SDS011;8838;50.144;8.176;2023-07-02T14:06:47;26.20;;;12.60;;
17441;SDS011;8838;50.144;8.176;2023-07-02T14:09:14;26.13;;;12.18;;
17441;SDS011;8838;50.144;8.176;2023-07-02T14:11:41;23.50;;;12.18;;
17441;SDS011;8838;50.144;8.176;2023-07-02T14:14:09;25.35;;;12.00;;
17441;SDS011;8838;50.144;8.176;2023-07-02T14:16:37;23.40;;;12.68;;
17441;SDS011;8838;50.144;8.176;2023-07-02T14:19:04;20.70;;;11.95;;
17441;SDS011;8838;50.144;8.176;2023-07-02T14:21:30;21.67;;;11.68;;
17441;SDS011;8838;50.144;8.176;2023-07-02T14:23:57;25.00;;;12.38;;
17441;SDS011;8838;50.144;8.176;2023-07-02T14:26:25;21.50;;;11.88;;
17441;SDS011;8838;50.144;8.176;2023-07-02T14:28:52;22.25;;;11.75;;
17441;SDS011;8838;50.144;8.176;2023-07-02T14:31:19;22.35;;;12.38;;
17441;SDS011;8838;50.144;8.176;2023-07-02T14:33:47;23.90;;;11.88;;
17441;SDS011;8838;50.144;8.176;2023-07-02T14:36:14;21.90;;;12.73;;
17441;SDS011;8838;50.144;8.176;2023-07-02T14:38:41;21.75;;;11.45;;
17441;SDS011;8838;50.144;8.176;2023-07-02T14:41:08;19.48;;;12.23;;
17441;SDS011;8838;50.144;8.176;2023-07-02T14:43:35;25.65;;;12.32;;
17441;SDS011;8838;50.144;8.176;2023-07-02T14:46:02;22.30;;;12.52;;